sensor_id;sensor_type;location;lat;lon;timestamp;P1;durP1;ratioP1;P2;durP2;ratioP2
56173;SDS011;42058;52.308;20.924;2023-03-23T00:14:27;39.90;;;20.20;;
56173;SDS011;42058;52.308;20.924;2023-03-23T00:21:36;38.90;;;20.20;;
56173;SDS011;42058;52.308;20.924;2023-03-23T00:36:05;39.90;;;19.20;;
56173;SDS011;42058;52.308;20.924;2023-03-23T00:46:52;39.80;;;19.50;;
56173;SDS011;42058;52.308;20.924;2023-03-23T00:57:53;40.60;;;19.50;;
56173;SDS011;42058;52.308;20.924;2023-03-23T02:05:53;35.40;;;16.80;;
56173;SDS011;42058;52.308;20.924;2023-03-23T02:08:33;31.50;;;16.80;;
56173;SDS011;42058;52.308;20.924;2023-03-23T02:11:01;33.50;;;17.70;;
56173;SDS011;42058;52.308;20.924;2023-03-23T02:13:28;33.10;;;17.90;;
56173;SDS011;42058;52.308;20.924;2023-03-23T02:16:02;36.10;;;18.70;;
56173;SDS011;42058;52.308;20.924;2023-03-23T02:21:20;36.00;;;17.50;;
56173;SDS011;42058;52.308;20.924;2023-03-23T02:35:11;31.90;;;17.20;;
56173;SDS011;42058;52.308;20.924;2023-03-23T02:37:51;29.50;;;16.40;;
56173;SDS011;42058;52.308;20.924;2023-03-23T02:40:25;30.70;;;16.90;;
56173;SDS011;42058;52.308;20.924;2023-03-23T02:42:56;33.30;;;16.90;;
56173;SDS011;42058;52.308;20.924;2023-03-23T02:45:25;31.40;;;16.40;;
56173;SDS011;42058;52.308;20.924;2023-03-23T02:47:55;31.30;;;15.90;;
56173;SDS011;42058;52.308;20.924;2023-03-23T02:50:23;29.50;;;16.20;;
56173;SDS011;42058;52.308;20.924;2023-03-23T02:52:53;30.00;;;16.50;;
56173;SDS011;42058;52.308;20.924;2023-03-23T02:55:22;28.30;;;15.70;;
56173;SDS011;42058;52.308;20.924;2023-03-23T02:57:54;30.00;;;16.20;;
56173;SDS011;42058;52.308;20.924;2023-03-23T03:00:21;28.40;;;15.20;;
56173;SDS011;42058;52.308;20.924;2023-03-23T03:02:49;31.50;;;15.40;;
56173;SDS011;42058;52.308;20.924;2023-03-23T03:05:26;30.50;;;15.70;;
56173;SDS011;42058;52.308;20.924;2023-03-23T03:15:54;29.10;;;15.00;;
56173;SDS011;42058;52.308;20.924;2023-03-23T03:18:27;30.60;;;14.90;;
56173;SDS011;42058;52.308;20.924;2023-03-23T03:21:04;29.80;;;15.20;;
56173;SDS011;42058;52.308;20.924;2023-03-23T03:23:34;30.30;;;15.80;;
56173;SDS011;42058;52.308;20.924;2023-03-23T03:26:04;28.50;;;14.90;;
56173;SDS011;42058;52.308;20.924;2023-03-23T03:28:40;29.40;;;15.50;;
56173;SDS011;42058;52.308;20.924;2023-03-23T03:31:07;29.70;;;15.40;;
56173;SDS011;42058;52.308;20.924;2023-03-23T03:33:35;27.70;;;15.40;;
56173;SDS011;42058;52.308;20.924;2023-03-23T03:36:03;29.80;;;14.80;;
56173;SDS011;42058;52.308;20.924;2023-03-23T03:38:42;27.40;;;15.10;;
56173;SDS011;42058;52.308;20.924;2023-03-23T03:41:10;25.20;;;14.30;;
56173;SDS011;42058;52.308;20.924;2023-03-23T03:43:37;27.50;;;14.50;;
56173;SDS011;42058;52.308;20.924;2023-03-23T03:46:04;28.30;;;15.50;;
56173;SDS011;42058;52.308;20.924;2023-03-23T03:48:32;28.70;;;14.80;;
56173;SDS011;42058;52.308;20.924;2023-03-23T03:51:00;28.60;;;14.50;;
56173;SDS011;42058;52.308;20.924;2023-03-23T03:53:29;28.80;;;15.10;;
56173;SDS011;42058;52.308;20.924;2023-03-23T03:55:57;29.40;;;15.60;;
56173;SDS011;42058;52.308;20.924;2023-03-23T03:58:29;28.70;;;14.80;;
56173;SDS011;42058;52.308;20.924;2023-03-23T04:01:17;24.50;;;13.80;;
56173;SDS011;42058;52.308;20.924;2023-03-23T04:03:48;29.00;;;14.70;;
56173;SDS011;42058;52.308;20.924;2023-03-23T04:06:22;31.30;;;15.50;;
56173;SDS011;42058;52.308;20.924;2023-03-23T04:08:51;29.20;;;14.60;;
56173;SDS011;42058;52.308;20.924;2023-03-23T04:11:17;27.70;;;14.10;;
56173;SDS011;42058;52.308;20.924;2023-03-23T04:13:44;24.90;;;13.80;;
56173;SDS011;42058;52.308;20.924;2023-03-23T04:16:20;25.80;;;14.50;;
56173;SDS011;42058;52.308;20.924;2023-03-23T04:18:48;31.60;;;14.80;;
56173;SDS011;42058;52.308;20.924;2023-03-23T04:21:16;26.70;;;14.50;;
56173;SDS011;42058;52.308;20.924;2023-03-23T04:23:45;26.60;;;14.30;;
56173;SDS011;42058;52.308;20.924;2023-03-23T04:26:53;28.60;;;15.70;;
56173;SDS011;42058;52.308;20.924;2023-03-23T04:29:27;25.80;;;13.60;;
56173;SDS011;42058;52.308;20.924;2023-03-23T04:32:19;26.40;;;14.10;;
56173;SDS011;42058;52.308;20.924;2023-03-23T04:34:50;25.70;;;14.20;;
56173;SDS011;42058;52.308;20.924;2023-03-23T04:37:17;27.00;;;14.50;;
56173;SDS011;42058;52.308;20.924;2023-03-23T04:39:43;25.70;;;13.60;;
56173;SDS011;42058;52.308;20.924;2023-03-23T04:42:11;27.90;;;13.60;;
56173;SDS011;42058;52.308;20.924;2023-03-23T04:44:42;31.50;;;15.00;;
56173;SDS011;42058;52.308;20.924;2023-03-23T04:47:12;26.40;;;13.90;;
56173;SDS011;42058;52.308;20.924;2023-03-23T04:52:16;24.20;;;13.40;;
56173;SDS011;42058;52.308;20.924;2023-03-23T04:54:44;24.30;;;13.70;;
56173;SDS011;42058;52.308;20.924;2023-03-23T04:57:11;26.60;;;13.40;;
56173;SDS011;42058;52.308;20.924;2023-03-23T04:59:39;25.20;;;13.60;;
56173;SDS011;42058;52.308;20.924;2023-03-23T05:02:11;26.00;;;13.90;;
56173;SDS011;42058;52.308;20.924;2023-03-23T05:04:40;24.40;;;13.10;;
56173;SDS011;42058;52.308;20.924;2023-03-23T05:07:10;28.10;;;13.40;;
56173;SDS011;42058;52.308;20.924;2023-03-23T05:09:41;24.80;;;13.70;;
56173;SDS011;42058;52.308;20.924;2023-03-23T05:12:08;23.90;;;12.90;;
56173;SDS011;42058;52.308;20.924;2023-03-23T05:14:43;26.70;;;13.60;;
56173;SDS011;42058;52.308;20.924;2023-03-23T05:17:11;24.90;;;12.90;;
56173;SDS011;42058;52.308;20.924;2023-03-23T05:19:38;21.60;;;12.50;;
56173;SDS011;42058;52.308;20.924;2023-03-23T05:22:16;24.70;;;12.00;;
56173;SDS011;42058;52.308;20.924;2023-03-23T05:24:49;26.10;;;12.50;;
56173;SDS011;42058;52.308;20.924;2023-03-23T05:29:46;21.50;;;11.30;;
56173;SDS011;42058;52.308;20.924;2023-03-23T05:32:15;25.00;;;12.70;;
56173;SDS011;42058;52.308;20.924;2023-03-23T05:34:43;25.70;;;13.10;;
56173;SDS011;42058;52.308;20.924;2023-03-23T05:37:09;24.70;;;12.80;;
56173;SDS011;42058;52.308;20.924;2023-03-23T05:39:56;26.70;;;13.00;;
56173;SDS011;42058;52.308;20.924;2023-03-23T05:42:43;23.10;;;11.90;;
56173;SDS011;42058;52.308;20.924;2023-03-23T05:45:25;23.40;;;12.40;;
56173;SDS011;42058;52.308;20.924;2023-03-23T05:47:52;23.30;;;12.50;;
56173;SDS011;42058;52.308;20.924;2023-03-23T05:50:19;22.00;;;12.20;;
56173;SDS011;42058;52.308;20.924;2023-03-23T05:52:46;22.80;;;12.90;;
56173;SDS011;42058;52.308;20.924;2023-03-23T05:55:13;22.70;;;12.00;;
56173;SDS011;42058;52.308;20.924;2023-03-23T05:57:42;20.70;;;11.90;;
56173;SDS011;42058;52.308;20.924;2023-03-23T06:00:21;24.20;;;12.40;;
56173;SDS011;42058;52.308;20.924;2023-03-23T06:02:54;19.50;;;11.70;;
56173;SDS011;42058;52.308;20.924;2023-03-23T06:05:28;21.30;;;12.30;;
56173;SDS011;42058;52.308;20.924;2023-03-23T06:07:55;28.00;;;12.20;;
56173;SDS011;42058;52.308;20.924;2023-03-23T06:10:21;23.90;;;11.70;;
56173;SDS011;42058;52.308;20.924;2023-03-23T06:12:54;22.50;;;11.00;;
56173;SDS011;42058;52.308;20.924;2023-03-23T06:15:33;24.90;;;11.70;;
56173;SDS011;42058;52.308;20.924;2023-03-23T06:18:00;20.90;;;12.10;;
56173;SDS011;42058;52.308;20.924;2023-03-23T06:20:38;23.90;;;11.50;;
56173;SDS011;42058;52.308;20.924;2023-03-23T06:23:17;22.60;;;11.10;;
56173;SDS011;42058;52.308;20.924;2023-03-23T06:25:43;24.50;;;11.40;;
56173;SDS011;42058;52.308;20.924;2023-03-23T06:28:10;22.20;;;11.70;;
56173;SDS011;42058;52.308;20.924;2023-03-23T06:30:41;20.80;;;11.50;;
56173;SDS011;42058;52.308;20.924;2023-03-23T06:33:27;22.20;;;11.00;;
56173;SDS011;42058;52.308;20.924;2023-03-23T06:38:51;17.80;;;10.40;;
56173;SDS011;42058;52.308;20.924;2023-03-23T06:42:12;21.50;;;10.90;;
56173;SDS011;42058;52.308;20.924;2023-03-23T06:44:42;20.10;;;11.10;;
56173;SDS011;42058;52.308;20.924;2023-03-23T06:47:11;19.60;;;10.50;;
56173;SDS011;42058;52.308;20.924;2023-03-23T06:49:44;20.40;;;9.90;;
56173;SDS011;42058;52.308;20.924;2023-03-23T06:52:31;41.60;;;10.50;;
56173;SDS011;42058;52.308;20.924;2023-03-23T06:54:57;33.00;;;10.30;;
56173;SDS011;42058;52.308;20.924;2023-03-23T06:57:26;28.40;;;10.60;;
56173;SDS011;42058;52.308;20.924;2023-03-23T06:59:52;25.10;;;9.80;;
56173;SDS011;42058;52.308;20.924;2023-03-23T07:02:18;20.20;;;10.00;;
56173;SDS011;42058;52.308;20.924;2023-03-23T07:04:46;22.60;;;10.90;;
56173;SDS011;42058;52.308;20.924;2023-03-23T07:07:19;17.10;;;9.10;;
56173;SDS011;42058;52.308;20.924;2023-03-23T07:09:50;24.10;;;9.60;;
56173;SDS011;42058;52.308;20.924;2023-03-23T07:12:19;23.20;;;9.70;;
56173;SDS011;42058;52.308;20.924;2023-03-23T07:14:46;15.50;;;9.30;;
56173;SDS011;42058;52.308;20.924;2023-03-23T07:17:13;19.50;;;9.80;;
56173;SDS011;42058;52.308;20.924;2023-03-23T07:19:47;17.50;;;9.00;;
56173;SDS011;42058;52.308;20.924;2023-03-23T07:22:13;14.90;;;9.10;;
56173;SDS011;42058;52.308;20.924;2023-03-23T07:24:40;17.80;;;9.10;;
56173;SDS011;42058;52.308;20.924;2023-03-23T07:27:14;17.10;;;8.70;;
56173;SDS011;42058;52.308;20.924;2023-03-23T07:29:41;19.70;;;9.40;;
56173;SDS011;42058;52.308;20.924;2023-03-23T07:32:13;17.00;;;8.40;;
56173;SDS011;42058;52.308;20.924;2023-03-23T07:34:39;18.00;;;8.50;;
56173;SDS011;42058;52.308;20.924;2023-03-23T07:37:15;15.10;;;8.60;;
56173;SDS011;42058;52.308;20.924;2023-03-23T07:39:42;13.40;;;8.10;;
56173;SDS011;42058;52.308;20.924;2023-03-23T07:42:09;18.00;;;9.20;;
56173;SDS011;42058;52.308;20.924;2023-03-23T07:45:12;13.90;;;7.70;;
56173;SDS011;42058;52.308;20.924;2023-03-23T07:47:39;14.60;;;7.80;;
56173;SDS011;42058;52.308;20.924;2023-03-23T07:50:06;14.20;;;8.10;;
